Time;durP1;ratioP1;P1;durP2;ratioP2;P2;SDS_P1;SDS_P2;PMS_P1;PMS_P2;Temp;Humidity;BMP_temperature;BMP_pressure;BME280_temperature;BME280_humidity;BME280_pressure;Samples;Min_cycle;Max_cycle;Signal;HPM_P1;HPM_P2
2022/05/24 00:00:05;;;;;;;19.67;17.80;;;18.30;99.90;;;;;;5054706;28;20515;-66
2022/05/24 00:02:32;;;;;;;18.50;16.70;;;18.30;99.90;;;;;;5054348;28;20818;-67
2022/05/24 00:04:58;;;;;;;18.17;16.37;;;18.30;99.90;;;;;;5054217;28;20493;-67
2022/05/24 00:07:23;;;;;;;19.43;17.67;;;18.30;99.90;;;;;;5054161;28;20412;-67
2022/05/24 00:09:49;;;;;;;18.67;16.77;;;18.40;99.90;;;;;;5054519;28;20193;-67
2022/05/24 00:12:15;;;;;;;20.13;16.30;;;18.30;99.90;;;;;;5054714;28;20201;-67
2022/05/24 00:17:25;;;;;;;18.80;17.10;;;18.40;99.90;;;;;;5052689;28;20170;-67
2022/05/24 00:19:51;;;;;;;17.00;15.47;;;18.40;99.90;;;;;;5054728;28;20458;-67
2022/05/24 00:22:17;;;;;;;19.33;17.53;;;18.40;99.90;;;;;;5053897;28;20492;-70
2022/05/24 00:24:42;;;;;;;17.50;15.90;;;18.30;99.90;;;;;;5053941;28;20216;-67
2022/05/24 00:27:08;;;;;;;14.00;12.70;;;18.30;99.90;;;;;;5054617;28;20904;-67
2022/05/24 00:29:34;;;;;;;14.67;13.27;;;18.30;99.90;;;;;;5051988;28;20630;-67
2022/05/24 00:32:00;;;;;;;15.90;14.60;;;18.30;99.90;;;;;;5052647;28;20494;-67
2022/05/24 00:34:26;;;;;;;15.10;13.80;;;18.30;99.90;;;;;;5053630;28;20190;-67
2022/05/24 00:36:51;;;;;;;17.03;15.23;;;18.30;99.90;;;;;;5054107;28;20451;-67
2022/05/24 00:39:17;;;;;;;13.50;12.17;;;18.40;99.90;;;;;;5054362;28;20174;-70
2022/05/24 00:41:56;;;;;;;12.63;11.40;;;18.30;99.90;;;;;;5053743;28;20185;-67
2022/05/24 00:44:33;;;;;;;11.90;10.90;;;18.30;99.90;;;;;;5053764;28;20193;-72
2022/05/24 00:47:29;;;;;;;12.20;11.20;;;18.30;99.90;;;;;;5054489;28;20831;-66
2022/05/24 00:50:08;;;;;;;10.67;9.67;;;18.30;99.90;;;;;;5054257;28;20444;-66
2022/05/24 00:52:46;;;;;;;11.77;10.80;;;18.20;99.90;;;;;;5052145;28;20464;-67
2022/05/24 00:55:15;;;;;;;11.97;10.77;;;18.20;99.90;;;;;;5054254;28;20412;-67
2022/05/24 00:58:25;;;;;;;10.77;9.80;;;18.20;99.90;;;;;;5052084;28;20459;-67
2022/05/24 01:00:52;;;;;;;11.57;10.57;;;18.20;99.90;;;;;;5051170;28;20922;-66
2022/05/24 01:03:18;;;;;;;11.40;10.20;;;18.20;99.90;;;;;;5053956;28;20412;-67
2022/05/24 01:05:44;;;;;;;11.50;10.47;;;18.10;99.90;;;;;;5052670;28;20416;-67
2022/05/24 01:08:10;;;;;;;11.40;10.50;;;18.20;99.90;;;;;;5053311;28;20435;-67
2022/05/24 01:10:44;;;;;;;10.73;9.83;;;18.10;99.90;;;;;;5051664;28;20177;-67
2022/05/24 01:13:14;;;;;;;11.13;10.10;;;18.20;99.90;;;;;;5052950;28;20476;-67
2022/05/24 01:15:43;;;;;;;11.50;10.47;;;18.20;99.90;;;;;;5051754;28;20481;-67
2022/05/24 01:18:10;;;;;;;11.60;10.40;;;18.20;99.90;;;;;;5052472;28;20470;-67
2022/05/24 01:20:37;;;;;;;11.90;10.87;;;18.20;99.90;;;;;;5051539;28;20476;-66
2022/05/24 01:23:27;;;;;;;12.10;11.00;;;18.30;99.90;;;;;;5053532;28;20470;-67
2022/05/24 01:26:03;;;;;;;12.13;11.13;;;18.20;99.90;;;;;;5052684;28;20409;-67
2022/05/24 01:28:44;;;;;;;12.57;11.47;;;18.20;99.90;;;;;;5051618;28;20472;-67
2022/05/24 01:31:10;;;;;;;12.00;11.07;;;18.10;99.90;;;;;;5034530;28;20401;-67
2022/05/24 01:36:24;;;;;;;12.33;11.33;;;18.10;99.90;;;;;;5052224;28;20436;-69
2022/05/24 01:38:55;;;;;;;16.00;14.50;;;18.20;99.90;;;;;;5052457;28;20432;-66
2022/05/24 01:41:24;;;;;;;16.13;14.57;;;18.20;99.90;;;;;;5052785;28;20397;-67
2022/05/24 01:43:54;;;;;;;12.70;11.70;;;18.20;99.90;;;;;;5052580;28;20424;-67
2022/05/24 01:46:42;;;;;;;17.50;15.90;;;18.20;99.90;;;;;;5051344;28;20783;-67
2022/05/24 01:49:23;;;;;;;14.53;13.33;;;18.20;99.90;;;;;;5052416;28;20832;-67
2022/05/24 01:51:59;;;;;;;15.83;14.53;;;18.20;99.90;;;;;;5052719;28;20455;-67
2022/05/24 01:54:26;;;;;;;14.40;13.00;;;18.20;99.90;;;;;;5051309;28;20447;-72
2022/05/24 01:56:59;;;;;;;14.23;12.93;;;18.20;99.90;;;;;;5051851;28;20428;-67
2022/05/24 01:59:25;;;;;;;12.97;11.87;;;18.20;99.90;;;;;;5051301;28;20424;-72
2022/05/24 02:01:54;;;;;;;13.67;12.50;;;18.20;99.90;;;;;;5051714;28;20436;-67
2022/05/24 02:04:22;;;;;;;14.60;13.30;;;18.30;99.90;;;;;;5053039;28;20416;-67
2022/05/24 02:07:08;;;;;;;16.50;15.17;;;18.20;99.90;;;;;;5052149;28;20416;-66
2022/05/24 02:09:38;;;;;;;13.50;12.30;;;18.10;99.90;;;;;;5034088;28;20424;-67
2022/05/24 02:12:09;;;;;;;14.80;13.40;;;18.10;99.90;;;;;;5052048;28;20537;-67
2022/05/24 02:14:43;;;;;;;15.00;13.70;;;18.10;99.90;;;;;;5050654;28;20769;-67
2022/05/24 02:17:15;;;;;;;16.23;14.53;;;18.10;99.90;;;;;;5051974;28;20396;-67
2022/05/24 02:19:44;;;;;;;16.00;14.40;;;18.10;99.90;;;;;;5051885;28;20774;-67
2022/05/24 02:22:21;;;;;;;14.83;13.40;;;18.10;99.90;;;;;;5052655;28;20464;-67
2022/05/24 02:24:56;;;;;;;15.70;14.30;;;18.00;99.90;;;;;;5051479;28;20408;-67
2022/05/24 02:27:22;;;;;;;15.20;13.80;;;18.10;99.90;;;;;;5052040;28;20477;-67
2022/05/24 02:29:48;;;;;;;15.63;14.07;;;18.10;99.90;;;;;;5051635;28;20819;-67
2022/05/24 02:32:14;;;;;;;16.57;14.87;;;18.00;99.90;;;;;;5051374;28;20472;-67
2022/05/24 02:34:39;;;;;;;14.97;13.73;;;18.00;99.90;;;;;;5050320;28;20196;-67
2022/05/24 02:37:05;;;;;;;17.47;15.83;;;18.00;99.90;;;;;;5051334;28;20260;-67
2022/05/24 02:41:28;;;;;;;18.60;16.80;;;18.00;99.90;;;;;;5050061;28;20170;-67
2022/05/24 02:42:16;;;;;;;18.77;17.07;;;17.90;99.90;;;;;;5051956;28;20205;-67
2022/05/24 02:44:42;;;;;;;17.40;15.57;;;17.90;99.90;;;;;;5050926;28;20470;-67
2022/05/24 02:47:08;;;;;;;18.47;16.83;;;18.00;99.90;;;;;;5051919;28;20621;-67
2022/05/24 02:49:33;;;;;;;18.77;16.97;;;17.90;99.90;;;;;;5051508;28;20182;-67
2022/05/24 02:51:59;;;;;;;19.43;17.47;;;17.80;99.90;;;;;;5049953;28;20271;-67
2022/05/24 02:54:25;;;;;;;16.97;15.30;;;17.80;99.90;;;;;;5051885;28;20557;-67
2022/05/24 02:56:50;;;;;;;18.57;16.63;;;17.90;99.90;;;;;;5050712;28;20188;-67
2022/05/24 02:59:16;;;;;;;16.77;15.00;;;17.80;99.90;;;;;;5052152;28;20177;-67
2022/05/24 03:01:42;;;;;;;18.20;16.40;;;17.90;99.90;;;;;;5050682;28;20270;-67
2022/05/24 03:04:08;;;;;;;17.57;15.93;;;17.90;99.90;;;;;;5051822;28;20193;-67
2022/05/24 03:09:33;;;;;;;17.03;15.23;;;18.00;99.90;;;;;;5050067;28;20550;-67
2022/05/24 03:09:35;;;;;;;17.90;15.50;;;18.00;99.90;;;;;;5052336;28;20405;-67
2022/05/24 03:14:52;;;;;;;18.53;16.77;;;18.10;99.90;;;;;;5050624;28;20741;-67
2022/05/24 03:17:18;;;;;;;17.73;16.07;;;18.00;99.90;;;;;;5050197;28;20812;-67
2022/05/24 03:19:44;;;;;;;17.83;15.73;;;18.00;99.90;;;;;;5050475;28;20420;-67
2022/05/24 03:22:10;;;;;;;15.90;14.30;;;18.00;99.90;;;;;;5050538;28;20476;-67
2022/05/24 03:24:36;;;;;;;15.17;13.77;;;17.90;99.90;;;;;;5051010;28;20922;-67
2022/05/24 03:27:07;;;;;;;15.50;14.00;;;17.90;99.90;;;;;;5048959;28;20193;-67
2022/05/24 03:29:34;;;;;;;13.77;12.37;;;17.80;99.90;;;;;;5053208;28;20392;-68
2022/05/24 03:32:00;;;;;;;14.87;13.57;;;17.80;99.90;;;;;;5056610;28;20484;-67
2022/05/24 03:34:26;;;;;;;14.87;13.57;;;17.70;99.90;;;;;;5053896;28;20520;-67
2022/05/24 03:36:52;;;;;;;14.43;12.97;;;17.70;99.90;;;;;;5054478;28;20420;-66
2022/05/24 03:39:18;;;;;;;15.10;13.77;;;17.70;99.90;;;;;;5055467;28;20423;-67
2022/05/24 03:41:46;;;;;;;13.70;12.50;;;17.70;99.90;;;;;;5054647;28;20244;-67
2022/05/24 03:44:12;;;;;;;13.47;12.07;;;17.60;99.90;;;;;;5055187;28;20551;-67
2022/05/24 03:46:38;;;;;;;14.40;12.90;;;17.60;99.90;;;;;;5035717;28;20436;-67
2022/05/24 03:49:04;;;;;;;13.83;12.53;;;17.70;99.90;;;;;;5055447;28;20416;-67
2022/05/24 03:51:30;;;;;;;13.80;12.57;;;17.70;99.90;;;;;;5054525;28;20217;-72
2022/05/24 03:53:56;;;;;;;11.23;10.23;;;17.60;99.90;;;;;;5053731;28;20419;-67
2022/05/24 03:56:23;;;;;;;10.40;9.40;;;17.60;99.90;;;;;;5055215;28;20412;-67
2022/05/24 03:58:49;;;;;;;11.30;10.13;;;17.70;99.90;;;;;;5054181;28;20531;-67
2022/05/24 04:01:15;;;;;;;10.70;9.80;;;17.60;99.90;;;;;;5054149;28;20522;-67
2022/05/24 04:03:41;;;;;;;11.63;10.63;;;17.60;99.90;;;;;;5054252;28;20769;-68
2022/05/24 04:06:06;;;;;;;11.47;10.47;;;17.70;99.90;;;;;;5054114;28;20536;-67
2022/05/24 04:08:33;;;;;;;9.90;9.10;;;17.70;99.90;;;;;;5054591;28;20178;-72
2022/05/24 04:11:06;;;;;;;10.20;9.30;;;17.70;99.90;;;;;;5054399;28;20190;-67
2022/05/24 04:13:33;;;;;;;10.33;9.53;;;17.80;99.90;;;;;;5054360;28;20493;-72
2022/05/24 04:15:59;;;;;;;10.37;9.47;;;17.80;99.90;;;;;;5054272;28;20442;-67
2022/05/24 04:18:26;;;;;;;8.87;8.30;;;17.80;99.90;;;;;;5054576;28;20408;-67
2022/05/24 04:20:52;;;;;;;8.00;7.40;;;17.80;99.90;;;;;;5053281;28;20282;-67
2022/05/24 04:23:19;;;;;;;8.37;7.10;;;17.90;99.90;;;;;;5054672;28;20451;-67
2022/05/24 04:25:45;;;;;;;8.43;7.63;;;17.90;99.90;;;;;;5052463;28;20420;-67
2022/05/24 04:28:11;;;;;;;7.47;6.83;;;18.00;99.90;;;;;;5054873;28;20451;-67
2022/05/24 04:30:38;;;;;;;7.97;7.20;;;17.90;99.90;;;;;;5051828;28;20448;-68
2022/05/24 04:33:04;;;;;;;9.27;7.70;;;17.90;99.90;;;;;;5053773;28;20494;-67
2022/05/24 04:35:30;;;;;;;9.10;8.40;;;17.90;99.90;;;;;;5054762;28;20487;-67
2022/05/24 04:37:56;;;;;;;8.20;7.60;;;17.80;99.90;;;;;;5053682;28;20181;-67
2022/05/24 04:42:18;;;;;;;7.60;7.10;;;17.80;99.90;;;;;;5053339;28;20413;-67
2022/05/24 04:43:08;;;;;;;10.37;9.57;;;17.80;99.90;;;;;;5054342;28;20424;-67
2022/05/24 04:45:33;;;;;;;8.80;8.00;;;17.80;99.90;;;;;;5054585;28;20580;-72
2022/05/24 04:47:59;;;;;;;12.63;9.43;;;17.80;99.90;;;;;;5055931;28;20641;-67
2022/05/24 04:50:25;;;;;;;8.90;8.00;;;17.90;99.90;;;;;;5032942;28;20194;-67
2022/05/24 04:52:50;;;;;;;9.93;8.93;;;17.80;99.90;;;;;;5047399;28;20213;-71
2022/05/24 04:55:16;;;;;;;11.10;10.30;;;17.80;99.90;;;;;;5053797;28;20197;-67
2022/05/24 04:57:43;;;;;;;7.97;7.00;;;17.80;99.90;;;;;;5052730;28;20231;-67
2022/05/24 05:00:14;;;;;;;9.33;8.63;;;17.80;99.90;;;;;;5052851;28;20173;-67
2022/05/24 05:02:43;;;;;;;7.73;6.97;;;17.80;99.90;;;;;;5053734;28;20440;-67
2022/05/24 05:05:09;;;;;;;6.40;5.90;;;17.80;99.90;;;;;;5050903;28;20443;-67
2022/05/24 05:07:34;;;;;;;8.80;8.10;;;17.80;99.90;;;;;;5052383;28;20401;-72
2022/05/24 05:10:00;;;;;;;6.07;5.47;;;17.70;99.90;;;;;;5055467;28;20435;-67
2022/05/24 05:12:26;;;;;;;8.27;7.87;;;17.70;99.90;;;;;;5053433;28;20668;-67
2022/05/24 05:14:52;;;;;;;7.40;6.80;;;17.70;99.90;;;;;;5051666;28;20194;-67
2022/05/24 05:17:19;;;;;;;7.70;7.20;;;17.70;99.90;;;;;;5051903;28;20462;-67
2022/05/24 05:19:45;;;;;;;7.77;5.03;;;17.70;99.90;;;;;;5052181;28;20439;-67
2022/05/24 05:22:12;;;;;;;5.90;4.90;;;17.70;99.90;;;;;;5053093;28;20502;-68
2022/05/24 05:24:38;;;;;;;8.20;7.60;;;17.70;99.90;;;;;;5052626;28;20471;-72
2022/05/24 05:27:04;;;;;;;5.97;5.13;;;17.70;99.90;;;;;;5053538;28;20435;-67
2022/05/24 05:32:20;;;;;;;6.30;5.70;;;17.50;99.90;;;;;;5054574;28;20467;-67
2022/05/24 05:34:47;;;;;;;5.20;4.80;;;17.40;99.90;;;;;;5055105;28;20439;-67
2022/05/24 05:37:13;;;;;;;6.07;5.60;;;17.20;99.90;;;;;;5060688;28;20460;-69
2022/05/24 05:39:39;;;;;;;4.90;4.37;;;17.20;99.90;;;;;;5058480;28;20958;-69
2022/05/24 05:42:05;;;;;;;5.43;4.77;;;17.30;99.90;;;;;;5061097;28;20518;-67
2022/05/24 05:44:31;;;;;;;5.70;4.40;;;17.20;99.90;;;;;;5058107;28;20197;-67
2022/05/24 05:46:57;;;;;;;7.87;7.23;;;17.20;99.90;;;;;;5072458;28;20415;-67
2022/05/24 05:49:23;;;;;;;4.93;4.43;;;17.20;99.90;;;;;;5073018;28;20476;-67
2022/05/24 05:51:49;;;;;;;8.70;8.00;;;17.20;99.90;;;;;;5058413;28;20216;-67
2022/05/24 05:54:15;;;;;;;6.83;5.10;;;17.00;99.90;;;;;;5058250;28;20437;-67
2022/05/24 05:56:41;;;;;;;6.60;4.87;;;16.90;99.90;;;;;;5052513;28;20407;-67
2022/05/24 05:59:07;;;;;;;8.40;7.70;;;16.90;99.90;;;;;;5052762;28;20213;-67
2022/05/24 06:01:33;;;;;;;5.90;5.00;;;16.70;99.90;;;;;;5057543;28;20440;-67
2022/05/24 06:04:00;;;;;;;6.90;6.23;;;16.70;99.90;;;;;;5053459;28;20432;-67
2022/05/24 06:06:30;;;;;;;7.13;6.70;;;16.60;99.90;;;;;;5053235;28;20249;-67
2022/05/24 06:08:56;;;;;;;7.17;6.60;;;16.60;99.90;;;;;;5052766;28;20570;-67
2022/05/24 06:11:23;;;;;;;6.63;5.37;;;16.40;99.90;;;;;;5053519;28;20447;-67
2022/05/24 06:13:49;;;;;;;6.10;5.07;;;16.20;99.90;;;;;;5054843;28;20267;-67
2022/05/24 06:16:16;;;;;;;9.67;8.97;;;16.20;99.90;;;;;;5060925;28;20441;-67
2022/05/24 06:18:42;;;;;;;6.13;5.63;;;16.20;99.90;;;;;;5057691;28;20922;-67
2022/05/24 06:21:08;;;;;;;13.00;7.00;;;16.10;99.90;;;;;;5050632;28;20467;-67
2022/05/24 06:23:33;;;;;;;5.07;4.67;;;16.00;99.90;;;;;;5049648;28;20208;-67
2022/05/24 06:26:00;;;;;;;7.90;7.40;;;16.00;99.90;;;;;;5056879;28;20442;-67
2022/05/24 06:28:26;;;;;;;6.53;5.10;;;16.00;99.90;;;;;;5058021;28;20184;-67
2022/05/24 06:30:52;;;;;;;8.50;8.00;;;16.00;99.90;;;;;;5054909;28;20427;-67
2022/05/24 06:33:18;;;;;;;6.13;5.67;;;16.00;99.90;;;;;;5059776;28;20500;-67
2022/05/24 06:35:45;;;;;;;7.70;7.10;;;15.90;99.90;;;;;;5065056;28;20454;-67
2022/05/24 06:38:11;;;;;;;7.33;5.20;;;15.90;99.90;;;;;;5051301;28;20647;-67
2022/05/24 06:40:37;;;;;;;5.80;5.30;;;15.90;99.90;;;;;;5052328;28;20419;-67
2022/05/24 06:43:03;;;;;;;8.33;7.83;;;15.80;99.90;;;;;;5051517;28;20426;-67
2022/05/24 06:45:30;;;;;;;6.03;5.40;;;15.80;99.90;;;;;;5052922;28;20515;-67
2022/05/24 06:47:55;;;;;;;8.27;7.50;;;15.80;99.90;;;;;;5051861;28;20418;-67
2022/05/24 06:50:21;;;;;;;5.67;5.27;;;15.80;99.90;;;;;;5034533;28;20437;-69
2022/05/24 06:52:51;;;;;;;4.67;4.37;;;15.80;99.90;;;;;;5050533;28;20251;-69
2022/05/24 06:55:17;;;;;;;6.30;4.00;;;15.60;99.90;;;;;;5052438;28;20480;-69
2022/05/24 06:57:43;;;;;;;5.60;5.10;;;15.60;99.90;;;;;;5051846;28;20917;-69
2022/05/24 07:03:06;;;;;;;7.57;6.87;;;15.60;99.90;;;;;;5048965;28;20180;-67
2022/05/24 07:05:31;;;;;;;4.20;3.90;;;15.50;99.90;;;;;;5056030;28;20419;-66
2022/05/24 07:08:00;;;;;;;6.07;5.57;;;15.50;99.90;;;;;;5057411;28;20432;-67
2022/05/24 07:10:26;;;;;;;4.77;4.47;;;15.50;99.90;;;;;;5056107;28;20178;-67
2022/05/24 07:13:03;;;;;;;7.13;5.37;;;15.50;99.90;;;;;;5055701;28;20465;-67
2022/05/24 07:15:29;;;;;;;6.90;6.50;;;15.50;99.90;;;;;;5056895;28;20247;-67
2022/05/24 07:17:56;;;;;;;3.30;3.00;;;15.60;99.90;;;;;;5055537;28;20422;-67
2022/05/24 07:20:22;;;;;;;5.00;4.67;;;15.60;99.90;;;;;;5056128;28;20454;-67
2022/05/24 07:22:48;;;;;;;4.60;4.20;;;15.60;99.90;;;;;;5054756;28;20486;-68
2022/05/24 07:25:15;;;;;;;6.73;5.77;;;15.60;99.90;;;;;;5054613;28;20453;-67
2022/05/24 07:27:41;;;;;;;4.67;4.27;;;15.70;99.90;;;;;;5054512;28;20500;-67
2022/05/24 07:30:08;;;;;;;5.33;4.70;;;15.70;99.90;;;;;;5055243;28;20459;-67
2022/05/24 07:32:34;;;;;;;7.20;6.80;;;15.70;99.90;;;;;;5056343;28;20536;-67
2022/05/24 07:35:01;;;;;;;5.20;4.90;;;15.70;99.90;;;;;;5055033;28;20425;-68
2022/05/24 07:37:26;;;;;;;3.60;3.40;;;15.70;99.90;;;;;;5053179;28;20934;-67
2022/05/24 07:45:48;;;;;;;3.30;3.00;;;15.70;99.90;;;;;;5057291;28;20465;-67
2022/05/24 07:48:09;;;;;;;4.20;3.90;;;15.70;99.90;;;;;;5059388;28;20447;-66
2022/05/24 07:50:35;;;;;;;4.50;4.30;;;15.80;99.90;;;;;;5057143;28;20418;-67
2022/05/24 07:53:02;;;;;;;6.00;4.37;;;15.80;99.90;;;;;;5053802;28;20470;-67
2022/05/24 07:55:28;;;;;;;5.97;3.57;;;15.80;99.90;;;;;;5051506;28;20439;-67
2022/05/24 07:57:53;;;;;;;4.60;4.03;;;15.80;99.90;;;;;;5057807;28;20430;-67
2022/05/24 08:00:20;;;;;;;4.20;3.73;;;15.80;99.90;;;;;;5054277;28;20453;-68
2022/05/24 08:02:49;;;;;;;4.23;3.80;;;15.80;99.90;;;;;;5065058;28;20195;-67
2022/05/24 08:05:15;;;;;;;4.43;3.90;;;15.90;99.90;;;;;;5068463;28;20976;-67
2022/05/24 08:07:41;;;;;;;5.50;5.10;;;16.00;99.90;;;;;;5061969;28;20786;-68
2022/05/24 08:10:08;;;;;;;3.50;3.20;;;16.10;99.90;;;;;;5054146;28;20424;-68
2022/05/24 08:12:33;;;;;;;3.53;3.23;;;16.20;99.90;;;;;;5056029;28;20215;-67
2022/05/24 08:14:59;;;;;;;6.30;6.00;;;16.30;99.90;;;;;;5057836;28;20509;-68
2022/05/24 08:17:25;;;;;;;3.60;3.40;;;16.50;99.90;;;;;;5056407;28;20248;-67
2022/05/24 08:19:52;;;;;;;4.03;3.30;;;16.70;99.90;;;;;;5070560;28;20263;-68
2022/05/24 08:22:19;;;;;;;3.80;3.50;;;16.80;99.90;;;;;;5074853;28;20203;-68
2022/05/24 08:24:45;;;;;;;4.53;3.73;;;16.90;99.90;;;;;;5074419;28;20865;-68
2022/05/24 08:27:16;;;;;;;3.70;3.50;;;17.10;99.90;;;;;;5074045;28;20514;-68
2022/05/24 08:29:44;;;;;;;3.93;3.73;;;17.30;99.90;;;;;;5074678;28;20473;-68
2022/05/24 08:32:11;;;;;;;4.10;3.80;;;17.50;99.90;;;;;;5074618;28;20455;-68
2022/05/24 08:34:38;;;;;;;5.73;5.33;;;17.70;99.90;;;;;;5073735;28;20820;-68
2022/05/24 08:37:05;;;;;;;4.33;3.93;;;17.80;99.90;;;;;;5073049;28;20469;-68
2022/05/24 08:39:31;;;;;;;4.03;3.70;;;18.00;99.90;;;;;;5074830;28;20404;-68
2022/05/24 08:42:36;;;;;;;4.57;4.17;;;18.00;99.90;;;;;;5074186;28;20437;-68
2022/05/24 08:48:25;;;;;;;5.27;4.97;;;17.90;99.90;;;;;;5074158;28;20411;-68
2022/05/24 08:51:21;;;;;;;4.30;4.10;;;17.80;99.70;;;;;;5074101;28;20412;-68
2022/05/24 08:53:50;;;;;;;8.27;7.67;;;17.70;99.70;;;;;;5065627;28;20485;-68
2022/05/24 08:56:32;;;;;;;5.90;5.60;;;17.60;99.90;;;;;;5073299;28;20415;-68
2022/05/24 08:59:28;;;;;;;5.70;5.50;;;17.60;99.90;;;;;;5073567;28;20944;-68
2022/05/24 09:01:54;;;;;;;5.40;5.10;;;17.50;99.20;;;;;;5074155;28;20477;-68
2022/05/24 09:04:20;;;;;;;4.80;4.50;;;17.60;99.70;;;;;;5074062;28;20789;-68
2022/05/24 09:06:51;;;;;;;4.70;4.30;;;17.70;99.90;;;;;;5074284;28;20411;-68
2022/05/24 09:09:44;;;;;;;5.50;5.10;;;17.90;99.90;;;;;;5074286;28;20176;-68
2022/05/24 09:12:44;;;;;;;5.70;4.80;;;18.10;99.90;;;;;;5073561;28;20839;-68
2022/05/24 09:15:31;;;;;;;4.80;4.50;;;18.00;98.50;;;;;;5072122;28;20895;-68
2022/05/24 09:18:26;;;;;;;4.93;4.60;;;17.90;98.40;;;;;;5073166;28;20889;-68
2022/05/24 09:20:52;;;;;;;5.23;4.83;;;17.80;98.20;;;;;;5073337;28;20459;-68
2022/05/24 09:23:26;;;;;;;5.30;4.80;;;17.80;99.90;;;;;;5074013;28;20420;-68
2022/05/24 09:26:05;;;;;;;5.27;4.97;;;18.00;99.90;;;;;;5055420;28;20518;-68
2022/05/24 09:28:46;;;;;;;7.87;7.37;;;18.20;99.90;;;;;;5073597;28;20411;-68
2022/05/24 09:31:18;;;;;;;4.80;4.30;;;18.50;99.90;;;;;;5073214;28;20512;-68
2022/05/24 09:33:45;;;;;;;4.23;3.90;;;18.80;98.20;;;;;;5073422;28;20944;-68
2022/05/24 09:36:32;;;;;;;7.93;7.53;;;18.90;97.50;;;;;;5073131;28;20412;-68
2022/05/24 09:38:59;;;;;;;4.37;4.07;;;19.00;96.90;;;;;;5073359;28;20395;-68
2022/05/24 09:41:25;;;;;;;4.93;4.27;;;19.00;97.00;;;;;;5073663;28;20413;-68
2022/05/24 09:44:17;;;;;;;6.60;3.50;;;18.80;94.80;;;;;;5072950;28;20508;-69
2022/05/24 09:46:44;;;;;;;4.47;3.77;;;18.60;94.00;;;;;;5072644;28;20431;-67
2022/05/24 09:49:13;;;;;;;3.90;3.60;;;18.50;94.40;;;;;;5071240;28;21059;-67
2022/05/24 09:51:41;;;;;;;3.90;3.60;;;18.30;95.30;;;;;;5072013;28;20996;-68
2022/05/24 09:54:16;;;;;;;4.67;3.97;;;18.30;95.50;;;;;;5073050;28;20400;-67
2022/05/24 09:57:05;;;;;;;5.20;4.80;;;18.30;95.70;;;;;;5073317;28;20419;-68
2022/05/24 09:59:33;;;;;;;4.27;3.97;;;18.20;95.40;;;;;;5073323;28;20395;-69
2022/05/24 10:01:59;;;;;;;4.67;4.47;;;18.00;95.70;;;;;;5072662;28;20424;-69
2022/05/24 10:04:36;;;;;;;5.80;3.90;;;17.80;94.60;;;;;;5073214;28;20883;-69
2022/05/24 10:07:27;;;;;;;6.90;6.50;;;17.70;95.10;;;;;;5071334;28;20431;-69
2022/05/24 10:09:56;;;;;;;5.10;4.87;;;17.70;96.40;;;;;;5072565;28;20388;-69
2022/05/24 10:12:44;;;;;;;3.83;3.63;;;17.70;96.50;;;;;;5072967;28;20465;-68
2022/05/24 10:15:18;;;;;;;4.37;4.17;;;17.70;96.80;;;;;;5072485;28;20400;-69
2022/05/24 10:18:14;;;;;;;3.97;3.53;;;17.70;96.90;;;;;;5073020;28;20419;-69
2022/05/24 10:21:09;;;;;;;3.60;3.40;;;17.70;96.70;;;;;;5072714;28;20455;-68
2022/05/24 10:23:54;;;;;;;4.50;4.00;;;17.70;96.90;;;;;;5069405;28;20438;-69
2022/05/24 10:26:55;;;;;;;3.30;3.10;;;17.70;96.60;;;;;;5073218;28;20399;-69
2022/05/24 10:29:49;;;;;;;4.03;3.73;;;17.70;96.50;;;;;;5072870;28;20468;-69
2022/05/24 10:38:51;;;;;;;3.43;3.13;;;17.90;97.90;;;;;;5058051;28;20423;-69
2022/05/24 10:41:25;;;;;;;3.50;3.30;;;18.30;98.50;;;;;;5070886;28;20442;-69
2022/05/24 10:44:01;;;;;;;2.53;2.37;;;18.50;96.60;;;;;;5073053;28;20418;-69
2022/05/24 10:46:36;;;;;;;3.60;3.30;;;18.70;96.20;;;;;;5054394;28;20932;-69
2022/05/24 10:49:08;;;;;;;2.70;2.60;;;18.80;93.70;;;;;;5070878;28;20438;-69
2022/05/24 10:51:55;;;;;;;3.60;3.30;;;18.70;93.30;;;;;;5071936;28;20472;-69
2022/05/24 10:54:29;;;;;;;5.77;5.37;;;18.60;93.00;;;;;;5072507;28;20407;-69
2022/05/24 10:57:13;;;;;;;5.30;4.27;;;18.40;94.30;;;;;;5072307;28;20486;-70
2022/05/24 11:00:03;;;;;;;4.43;4.20;;;18.50;93.90;;;;;;5072887;28;20875;-69
2022/05/24 11:02:47;;;;;;;6.37;4.23;;;18.80;95.20;;;;;;5072295;28;20960;-69
2022/05/24 11:05:47;;;;;;;4.00;3.70;;;19.00;95.20;;;;;;5072019;28;20419;-69
2022/05/24 11:08:31;;;;;;;3.60;3.40;;;19.40;95.10;;;;;;5072142;28;20445;-69
2022/05/24 11:11:04;;;;;;;3.43;3.23;;;19.60;92.80;;;;;;5070572;28;20415;-69
2022/05/24 11:13:47;;;;;;;3.93;2.97;;;19.70;91.50;;;;;;5072334;28;20451;-69
2022/05/24 11:16:34;;;;;;;4.20;3.80;;;20.00;92.60;;;;;;5070569;28;20443;-69
2022/05/24 11:19:00;;;;;;;3.73;3.53;;;20.10;91.90;;;;;;5071934;28;20411;-69
2022/05/24 11:21:36;;;;;;;4.60;3.43;;;20.10;90.40;;;;;;5070449;28;20554;-69
2022/05/24 11:24:08;;;;;;;3.87;3.67;;;20.10;90.30;;;;;;5071745;28;20411;-69
2022/05/24 11:26:39;;;;;;;3.80;3.50;;;20.30;91.60;;;;;;5071410;28;20714;-69
2022/05/24 11:29:43;;;;;;;3.63;3.43;;;20.60;91.10;;;;;;5071659;28;20396;-69
2022/05/24 11:32:11;;;;;;;3.17;3.07;;;20.70;88.00;;;;;;5070179;28;20914;-69
2022/05/24 11:35:07;;;;;;;4.20;3.90;;;20.80;85.10;;;;;;5072112;28;20411;-69
2022/05/24 11:37:36;;;;;;;4.60;4.30;;;20.90;84.50;;;;;;5072228;28;20406;-68
2022/05/24 11:41:02;;;;;;;4.93;4.63;;;20.80;85.10;;;;;;5071550;28;20883;-69
2022/05/24 11:43:43;;;;;;;6.20;5.70;;;20.80;85.70;;;;;;5049870;28;20428;-69
2022/05/24 11:46:15;;;;;;;7.63;3.83;;;20.70;84.00;;;;;;5049193;28;20419;-69
2022/05/24 11:48:53;;;;;;;3.10;2.90;;;20.50;84.20;;;;;;5060439;28;20782;-69
2022/05/24 11:51:32;;;;;;;4.03;3.83;;;20.40;83.30;;;;;;5074369;28;20419;-69
2022/05/24 11:54:00;;;;;;;3.23;2.93;;;20.20;84.60;;;;;;5073991;28;20415;-70
2022/05/24 11:56:28;;;;;;;2.70;2.50;;;20.20;87.00;;;;;;5075227;28;20407;-69
2022/05/24 11:59:36;;;;;;;4.60;4.30;;;20.10;84.90;;;;;;5075536;28;20415;-69
2022/05/24 12:02:25;;;;;;;3.70;3.50;;;20.00;84.50;;;;;;5074641;28;20431;-69
2022/05/24 12:08:32;;;;;;;4.97;4.67;;;19.90;85.10;;;;;;5074491;28;20903;-69
2022/05/24 12:11:09;;;;;;;4.13;3.50;;;19.80;83.10;;;;;;5075158;28;20922;-69
2022/05/24 12:13:44;;;;;;;3.00;2.70;;;19.80;84.10;;;;;;5074064;28;20561;-69
2022/05/24 12:16:32;;;;;;;5.10;4.90;;;19.90;85.00;;;;;;5073341;28;20822;-69
2022/05/24 12:19:02;;;;;;;2.80;2.70;;;19.90;83.50;;;;;;5073576;28;20427;-68
2022/05/24 12:21:41;;;;;;;2.57;2.37;;;19.90;84.30;;;;;;5075278;28;20534;-69
2022/05/24 12:24:32;;;;;;;3.87;3.67;;;19.90;86.00;;;;;;5056752;28;20415;-69
2022/05/24 12:27:19;;;;;;;5.13;4.80;;;20.10;88.70;;;;;;5075275;28;20473;-69
2022/05/24 12:29:49;;;;;;;3.00;2.80;;;20.10;83.80;;;;;;5075255;28;20486;-69
2022/05/24 12:32:17;;;;;;;2.90;2.70;;;20.10;84.10;;;;;;5074090;28;20442;-69
2022/05/24 12:34:43;;;;;;;3.20;2.80;;;20.20;86.70;;;;;;5074931;28;20439;-69
2022/05/24 12:37:26;;;;;;;2.80;2.60;;;20.20;84.00;;;;;;5074359;28;20423;-69
2022/05/24 12:40:09;;;;;;;2.83;2.63;;;20.20;81.60;;;;;;5074894;28;20407;-69
2022/05/24 12:42:41;;;;;;;2.77;2.67;;;20.30;82.70;;;;;;5074874;28;20400;-69
2022/05/24 12:45:07;;;;;;;3.37;3.07;;;20.30;85.30;;;;;;5074030;28;20395;-69
2022/05/24 12:47:33;;;;;;;2.87;2.63;;;20.30;82.50;;;;;;5074643;28;20404;-69
2022/05/24 12:50:00;;;;;;;2.37;2.27;;;20.20;80.90;;;;;;5074477;28;20434;-69
2022/05/24 12:52:31;;;;;;;4.40;3.97;;;20.20;83.50;;;;;;5074309;28;20463;-69
2022/05/24 12:55:00;;;;;;;2.50;2.23;;;20.20;85.10;;;;;;5074489;28;20769;-69
2022/05/24 12:57:41;;;;;;;4.00;3.77;;;20.20;85.90;;;;;;5072965;28;20415;-69
2022/05/24 13:00:08;;;;;;;2.40;2.30;;;20.20;82.50;;;;;;5074009;28;20411;-69
2022/05/24 13:02:43;;;;;;;2.20;2.10;;;20.20;86.00;;;;;;5073689;28;20415;-69
2022/05/24 13:05:16;;;;;;;3.17;3.07;;;20.20;83.90;;;;;;5073572;28;20803;-69
2022/05/24 13:07:47;;;;;;;2.43;2.30;;;20.10;81.90;;;;;;5072992;28;20968;-69
2022/05/24 13:10:21;;;;;;;3.77;3.47;;;20.00;79.30;;;;;;5073523;28;20400;-69
2022/05/24 13:12:50;;;;;;;2.40;2.30;;;20.10;83.50;;;;;;5073835;28;20504;-69
2022/05/24 13:15:20;;;;;;;2.30;2.20;;;20.20;84.20;;;;;;5072698;28;20415;-72
2022/05/24 13:17:47;;;;;;;3.30;3.10;;;20.20;90.00;;;;;;5073756;28;20403;-72
2022/05/24 13:20:19;;;;;;;2.43;2.20;;;20.20;88.00;;;;;;5071952;28;20478;-72
2022/05/24 13:22:55;;;;;;;17.50;15.87;;;20.10;80.90;;;;;;5054654;28;20524;-72
2022/05/24 13:25:29;;;;;;;11.70;9.50;;;19.90;80.30;;;;;;5049860;28;20506;-72
2022/05/24 13:28:00;;;;;;;107.67;81.47;;;19.90;82.60;;;;;;5049714;28;20404;-72
2022/05/24 13:33:38;;;;;;;8.37;6.87;;;20.10;84.10;;;;;;5051339;28;20944;-72
2022/05/24 13:36:15;;;;;;;5.87;4.70;;;20.20;86.00;;;;;;5050204;28;20783;-72
2022/05/24 13:38:42;;;;;;;62.23;54.83;;;20.20;84.00;;;;;;5049272;28;20419;-71